Time;durP1;ratioP1;P1;durP2;ratioP2;P2;SDS_P1;SDS_P2;PMS_P1;PMS_P2;Temp;Humidity;BMP_temperature;BMP_pressure;BME280_temperature;BME280_humidity;BME280_pressure;Samples;Min_cycle;Max_cycle;Signal;HPM_P1;HPM_P2
2023/12/13 05:01:16;;;;;;;20.77;2.30;;;7.40;97.30;;;;;;5715706;23;20878;-87
2023/12/13 05:03:42;;;;;;;3.17;2.97;;;7.40;97.30;;;;;;5000727;28;20440;-87
2023/12/13 05:06:08;;;;;;;5.70;2.87;;;7.40;97.30;;;;;;5002709;28;20205;-89
2023/12/13 05:08:33;;;;;;;16.93;4.27;;;7.30;97.30;;;;;;5009250;28;20169;-87
2023/12/13 05:10:59;;;;;;;2.00;1.60;;;7.40;97.30;;;;;;5005153;28;20292;-88
2023/12/13 05:13:26;;;;;;;1.60;1.50;;;7.40;97.30;;;;;;4988759;28;20206;-87
2023/12/13 05:15:51;;;;;;;1.97;1.87;;;7.50;97.30;;;;;;4991303;28;20196;-88
2023/12/13 05:18:17;;;;;;;4.97;3.03;;;7.50;97.30;;;;;;4990403;28;21009;-87
2023/12/13 05:20:42;;;;;;;2.57;2.37;;;7.50;97.30;;;;;;4992120;28;20217;-87
2023/12/13 05:23:08;;;;;;;6.60;2.53;;;7.50;97.30;;;;;;4990822;28;20205;-86
2023/12/13 05:25:33;;;;;;;2.00;1.90;;;7.50;97.30;;;;;;4991694;28;20209;-87
2023/12/13 05:27:59;;;;;;;3.50;1.80;;;7.50;97.30;;;;;;4990843;28;20181;-87
2023/12/13 05:30:24;;;;;;;2.20;2.00;;;7.50;97.30;;;;;;4991185;28;20178;-88
2023/12/13 05:32:53;;;;;;;2.10;1.53;;;7.60;97.30;;;;;;4990977;28;20196;-89
2023/12/13 05:35:19;;;;;;;3.60;1.57;;;7.60;97.30;;;;;;4984632;28;20647;-88
2023/12/13 05:37:44;;;;;;;1.60;1.53;;;7.70;97.30;;;;;;4992055;28;20421;-87
2023/12/13 05:40:10;;;;;;;3.43;3.23;;;7.70;97.30;;;;;;4991218;28;20240;-87
2023/12/13 05:42:36;;;;;;;9.60;2.90;;;7.70;97.30;;;;;;4991378;28;20210;-89
2023/12/13 05:45:01;;;;;;;3.50;2.10;;;7.70;97.30;;;;;;4992287;28;20433;-89
2023/12/13 05:47:27;;;;;;;11.13;2.50;;;7.80;97.30;;;;;;4991128;28;20304;-89
2023/12/13 05:49:53;;;;;;;3.40;3.20;;;7.80;97.30;;;;;;4991176;28;20188;-87
2023/12/13 05:52:18;;;;;;;2.80;1.97;;;7.70;97.30;;;;;;4990858;28;20210;-89
2023/12/13 05:54:44;;;;;;;1.77;1.67;;;7.70;97.30;;;;;;4990022;28;20549;-88
2023/12/13 05:57:10;;;;;;;5.13;3.77;;;7.70;97.30;;;;;;4989418;28;20284;-89
2023/12/13 05:59:36;;;;;;;6.17;1.87;;;7.70;97.30;;;;;;4975011;28;20228;-87
2023/12/13 06:02:01;;;;;;;2.37;1.80;;;7.70;97.30;;;;;;4983085;28;20982;-88
2023/12/13 06:04:27;;;;;;;1.97;1.87;;;7.70;97.30;;;;;;4991035;28;20201;-88
2023/12/13 06:06:53;;;;;;;5.13;3.23;;;7.70;97.30;;;;;;4991976;28;20357;-87
2023/12/13 06:09:21;;;;;;;4.53;2.70;;;7.70;97.30;;;;;;4992252;28;20201;-86
2023/12/13 06:11:46;;;;;;;1.73;1.60;;;7.70;97.30;;;;;;4993095;28;20253;-88
2023/12/13 06:14:12;;;;;;;2.20;1.50;;;7.70;97.30;;;;;;4991543;28;20792;-88
2023/12/13 06:16:37;;;;;;;4.93;2.60;;;7.70;97.30;;;;;;4996150;28;20276;-87
2023/12/13 06:19:03;;;;;;;1.37;1.27;;;7.70;97.30;;;;;;4991086;28;20190;-89
2023/12/13 06:21:29;;;;;;;3.90;2.30;;;7.70;97.30;;;;;;4984624;28;20268;-85
2023/12/13 06:23:54;;;;;;;3.17;2.70;;;7.70;97.30;;;;;;4990715;28;20201;-87
2023/12/13 06:26:20;;;;;;;1.07;0.97;;;7.70;97.30;;;;;;4991698;28;20344;-86
2023/12/13 06:28:45;;;;;;;1.90;1.67;;;7.60;97.30;;;;;;4991415;28;20182;-88
2023/12/13 06:31:11;;;;;;;1.63;1.53;;;7.60;97.30;;;;;;4994481;28;20548;-89
2023/12/13 06:33:37;;;;;;;1.47;1.43;;;7.70;97.30;;;;;;4994237;28;20190;-89
2023/12/13 06:36:02;;;;;;;1.73;1.63;;;7.70;97.30;;;;;;4994119;28;20201;-89
2023/12/13 06:38:28;;;;;;;1.43;1.33;;;7.70;97.30;;;;;;4995348;28;20189;-87
2023/12/13 06:40:53;;;;;;;2.73;2.53;;;7.70;97.30;;;;;;4995510;28;20723;-88
2023/12/13 06:43:19;;;;;;;0.90;0.80;;;7.80;97.30;;;;;;4989090;28;20189;-88
2023/12/13 06:45:44;;;;;;;1.47;1.10;;;7.80;97.30;;;;;;4993972;28;20687;-87
2023/12/13 06:48:10;;;;;;;3.13;2.50;;;7.80;97.30;;;;;;4995410;28;20224;-88
2023/12/13 06:50:35;;;;;;;1.83;1.73;;;7.80;97.30;;;;;;4992663;28;20196;-88
2023/12/13 06:53:01;;;;;;;2.00;1.57;;;7.80;97.30;;;;;;4994188;28;20259;-89
2023/12/13 06:55:27;;;;;;;1.87;1.33;;;7.80;97.30;;;;;;4994054;28;20194;-89
2023/12/13 06:57:52;;;;;;;1.80;1.37;;;7.80;97.30;;;;;;4993938;28;20441;-88
2023/12/13 07:00:21;;;;;;;1.43;1.27;;;7.90;97.30;;;;;;4993932;28;20750;-88
2023/12/13 07:02:47;;;;;;;1.20;1.10;;;7.90;97.30;;;;;;4994115;28;20242;-88
2023/12/13 07:05:13;;;;;;;2.27;1.80;;;7.80;97.30;;;;;;4993491;28;20428;-88
2023/12/13 07:07:38;;;;;;;2.30;2.10;;;7.90;97.30;;;;;;4993709;28;20508;-89
2023/12/13 07:10:04;;;;;;;2.73;1.33;;;7.80;97.30;;;;;;4993277;28;20174;-88
2023/12/13 07:12:29;;;;;;;1.00;0.90;;;7.80;97.30;;;;;;4993562;28;20260;-88
2023/12/13 07:14:58;;;;;;;3.03;1.60;;;7.80;97.30;;;;;;4993425;28;20449;-86
2023/12/13 07:17:24;;;;;;;2.07;1.93;;;7.80;97.30;;;;;;4995157;28;20341;-88
2023/12/13 07:19:50;;;;;;;0.90;0.80;;;7.70;97.30;;;;;;4990125;28;20470;-88
2023/12/13 07:22:18;;;;;;;2.87;1.23;;;7.70;97.30;;;;;;4993102;28;20210;-88
2023/12/13 07:24:44;;;;;;;1.10;1.00;;;7.70;97.30;;;;;;4992655;28;20441;-88
2023/12/13 07:27:09;;;;;;;2.53;1.50;;;7.70;97.30;;;;;;4992357;28;20460;-88
2023/12/13 07:29:35;;;;;;;2.10;1.83;;;7.70;97.30;;;;;;4993247;28;20460;-87
2023/12/13 07:32:00;;;;;;;1.10;1.00;;;7.70;97.30;;;;;;4991721;28;20203;-88
2023/12/13 07:34:26;;;;;;;6.10;2.60;;;7.70;97.30;;;;;;4993463;28;20255;-88
2023/12/13 07:36:53;;;;;;;2.60;1.33;;;7.70;97.30;;;;;;4997211;28;20189;-90
2023/12/13 07:39:19;;;;;;;1.80;1.70;;;7.80;97.30;;;;;;4992464;28;20177;-88
2023/12/13 07:41:44;;;;;;;1.30;1.20;;;7.80;97.30;;;;;;4992178;28;20836;-87
2023/12/13 07:44:10;;;;;;;1.60;1.50;;;7.80;97.30;;;;;;4992016;28;20553;-88
2023/12/13 07:46:36;;;;;;;1.50;1.40;;;7.80;97.30;;;;;;4987292;28;20198;-88
2023/12/13 07:49:03;;;;;;;2.07;1.93;;;7.80;97.30;;;;;;4991450;28;20186;-88
2023/12/13 07:51:35;;;;;;;1.57;1.47;;;7.80;97.30;;;;;;4987691;28;20456;-88
2023/12/13 07:54:01;;;;;;;2.20;1.53;;;7.90;97.30;;;;;;4992621;28;20524;-88
2023/12/13 07:56:28;;;;;;;2.60;1.23;;;7.90;97.30;;;;;;4992487;28;20421;-88
2023/12/13 07:58:54;;;;;;;1.37;1.27;;;7.90;97.30;;;;;;4992982;28;20487;-88
2023/12/13 08:01:19;;;;;;;1.10;1.00;;;7.90;97.30;;;;;;4989931;28;20485;-88
2023/12/13 08:03:45;;;;;;;1.20;1.10;;;8.00;97.30;;;;;;4989413;28;20425;-88
2023/12/13 08:06:14;;;;;;;2.70;0.90;;;8.00;97.30;;;;;;4992051;28;20193;-88
2023/12/13 08:08:41;;;;;;;1.23;1.13;;;8.00;97.30;;;;;;4988623;28;20178;-87
2023/12/13 08:11:07;;;;;;;1.27;1.00;;;8.00;97.30;;;;;;4992314;28;20829;-88
2023/12/13 08:13:34;;;;;;;6.00;3.03;;;8.10;97.30;;;;;;4992720;28;20417;-89
2023/12/13 08:16:00;;;;;;;1.43;1.40;;;8.10;97.30;;;;;;4997325;28;20431;-87
2023/12/13 08:18:26;;;;;;;1.73;1.63;;;8.10;97.30;;;;;;4992394;28;20428;-88
2023/12/13 08:20:52;;;;;;;3.40;2.33;;;8.20;97.30;;;;;;5016788;23;20544;-88
2023/12/13 08:23:17;;;;;;;1.40;1.30;;;8.20;97.30;;;;;;4979508;28;20512;-85
2023/12/13 08:25:43;;;;;;;2.20;1.53;;;8.20;97.30;;;;;;4988198;28;20707;-86
2023/12/13 08:28:09;;;;;;;3.07;2.23;;;8.20;97.30;;;;;;4991793;28;20178;-84
2023/12/13 08:30:35;;;;;;;1.83;1.73;;;8.20;97.30;;;;;;4989280;28;20467;-85
2023/12/13 08:33:01;;;;;;;2.33;2.23;;;8.30;97.30;;;;;;4989721;28;20182;-85
2023/12/13 08:35:26;;;;;;;1.87;1.77;;;8.30;97.30;;;;;;4979101;28;20185;-86
2023/12/13 08:37:52;;;;;;;4.70;2.43;;;8.30;97.30;;;;;;4981968;28;20830;-85
2023/12/13 08:40:18;;;;;;;1.53;1.43;;;8.30;97.30;;;;;;4977848;28;20185;-86
2023/12/13 08:42:44;;;;;;;1.00;0.90;;;8.30;97.30;;;;;;4988682;28;20448;-88
2023/12/13 08:45:12;;;;;;;2.47;2.27;;;8.30;97.30;;;;;;4990228;28;20355;-86
2023/12/13 08:47:38;;;;;;;1.00;0.90;;;8.40;97.30;;;;;;4989608;28;20281;-87
2023/12/13 08:50:04;;;;;;;2.50;2.30;;;8.40;97.30;;;;;;4981633;28;20584;-87
2023/12/13 08:52:29;;;;;;;2.50;1.73;;;8.40;97.30;;;;;;4990025;28;20220;-86
2023/12/13 08:54:55;;;;;;;1.80;1.60;;;8.40;97.30;;;;;;4990090;28;20186;-83
2023/12/13 08:57:21;;;;;;;1.30;1.20;;;8.50;97.30;;;;;;4988026;28;20213;-86
2023/12/13 08:59:46;;;;;;;24.10;1.80;;;8.40;97.30;;;;;;4976297;28;20959;-88
2023/12/13 09:02:12;;;;;;;1.10;1.00;;;8.50;97.30;;;;;;4986191;28;20202;-88
2023/12/13 09:04:38;;;;;;;1.23;1.13;;;8.50;97.30;;;;;;4985848;28;20185;-87
2023/12/13 09:07:03;;;;;;;1.00;0.90;;;8.50;97.30;;;;;;4985138;28;20229;-89
2023/12/13 09:09:31;;;;;;;1.00;0.90;;;8.50;97.30;;;;;;4981756;28;20201;-87
2023/12/13 09:11:58;;;;;;;1.00;0.90;;;8.50;97.30;;;;;;4985193;28;20216;-85
2023/12/13 09:14:25;;;;;;;5.03;1.93;;;8.50;97.30;;;;;;4986246;28;20429;-88
2023/12/13 09:16:50;;;;;;;1.40;1.30;;;8.60;97.30;;;;;;4979316;28;20896;-87
2023/12/13 09:19:16;;;;;;;2.20;1.97;;;8.60;97.30;;;;;;4985455;28;20489;-86
2023/12/13 09:21:42;;;;;;;0.90;0.80;;;8.60;97.30;;;;;;4985626;28;20253;-87
2023/12/13 09:24:07;;;;;;;1.07;0.97;;;8.80;97.30;;;;;;4984360;28;20259;-85
2023/12/13 09:26:35;;;;;;;1.27;1.17;;;8.90;97.30;;;;;;4979377;28;20761;-86
2023/12/13 09:29:01;;;;;;;1.30;1.20;;;8.80;97.30;;;;;;4990602;28;20186;-86
2023/12/13 09:31:27;;;;;;;3.23;1.47;;;8.80;97.30;;;;;;4989955;28;20536;-86
2023/12/13 09:33:53;;;;;;;1.27;1.20;;;8.80;97.30;;;;;;4988505;28;20457;-86
2023/12/13 09:36:19;;;;;;;1.10;1.00;;;8.80;97.30;;;;;;4986929;28;20189;-85
2023/12/13 09:38:45;;;;;;;1.37;1.17;;;8.80;97.30;;;;;;4990233;28;20186;-85
2023/12/13 09:41:12;;;;;;;29.13;1.77;;;8.80;97.30;;;;;;4990020;28;20981;-87
2023/12/13 09:43:42;;;;;;;12.73;1.43;;;9.00;97.30;;;;;;4984907;28;20729;-83
2023/12/13 09:46:12;;;;;;;1.37;1.27;;;9.10;97.30;;;;;;4981005;28;20469;-85
2023/12/13 09:48:40;;;;;;;1.00;0.90;;;9.10;97.30;;;;;;4987094;28;20457;-85
2023/12/13 09:51:09;;;;;;;1.53;1.33;;;9.10;97.30;;;;;;4982022;28;20453;-86
2023/12/13 09:53:38;;;;;;;1.83;1.77;;;9.10;97.30;;;;;;4976661;28;20959;-85
2023/12/13 09:56:04;;;;;;;1.43;1.33;;;9.10;97.30;;;;;;4989007;28;20474;-87
2023/12/13 09:58:30;;;;;;;1.10;1.00;;;9.20;97.30;;;;;;4988608;28;20452;-86
2023/12/13 10:00:56;;;;;;;1.20;1.10;;;9.20;97.30;;;;;;4990589;28;20939;-86
2023/12/13 10:03:22;;;;;;;1.03;1.00;;;9.20;97.30;;;;;;4990718;28;20182;-85
2023/12/13 10:05:48;;;;;;;2.93;2.07;;;9.30;97.30;;;;;;4991782;28;20486;-85
2023/12/13 10:08:14;;;;;;;1.43;1.33;;;9.20;97.30;;;;;;4986343;28;20269;-86
2023/12/13 10:10:42;;;;;;;2.60;1.40;;;9.20;97.30;;;;;;4992965;28;20412;-86
2023/12/13 10:13:09;;;;;;;1.20;1.10;;;9.20;97.30;;;;;;4993286;28;20513;-86
2023/12/13 10:15:36;;;;;;;5.60;2.50;;;9.30;97.30;;;;;;4993254;28;20457;-85
2023/12/13 10:18:01;;;;;;;1.43;1.33;;;9.30;97.30;;;;;;4992955;28;20506;-86
2023/12/13 10:20:30;;;;;;;1.37;1.27;;;9.30;97.30;;;;;;4991725;28;20600;-86
2023/12/13 10:22:55;;;;;;;1.53;1.23;;;9.40;97.30;;;;;;4993165;28;20229;-86
2023/12/13 10:25:22;;;;;;;1.10;1.00;;;9.50;97.30;;;;;;5000721;28;20470;-85
2023/12/13 10:27:50;;;;;;;2.23;2.03;;;9.50;97.30;;;;;;5006341;28;20197;-85
2023/12/13 10:30:17;;;;;;;0.90;0.90;;;9.60;97.30;;;;;;4993599;28;20439;-86
2023/12/13 10:32:42;;;;;;;1.20;1.07;;;9.60;97.30;;;;;;4992595;28;20445;-85
2023/12/13 10:35:09;;;;;;;1.30;1.20;;;9.70;97.30;;;;;;4993025;28;20433;-84
2023/12/13 10:37:35;;;;;;;4.50;1.10;;;9.60;97.30;;;;;;4994448;28;20178;-85
2023/12/13 10:40:03;;;;;;;4.20;1.90;;;9.80;97.30;;;;;;4991518;28;20429;-85
2023/12/13 10:42:29;;;;;;;2.90;2.70;;;10.00;97.30;;;;;;4992732;28;20452;-85
2023/12/13 10:44:55;;;;;;;1.67;1.57;;;10.10;97.30;;;;;;4986063;28;20425;-86
2023/12/13 10:47:24;;;;;;;13.03;2.70;;;10.10;97.30;;;;;;4985921;28;20464;-86
2023/12/13 10:49:51;;;;;;;5.27;2.10;;;10.10;97.30;;;;;;4993045;28;20385;-85
2023/12/13 10:52:20;;;;;;;1.37;1.30;;;10.10;97.30;;;;;;4992791;28;20441;-85
2023/12/13 10:54:47;;;;;;;1.90;1.80;;;10.10;97.30;;;;;;4992637;28;20797;-84
2023/12/13 10:57:13;;;;;;;3.73;1.93;;;10.10;97.30;;;;;;4993894;28;20435;-86
2023/12/13 10:59:41;;;;;;;3.57;1.70;;;10.20;97.30;;;;;;4992280;28;20782;-87
2023/12/13 11:02:09;;;;;;;13.63;2.67;;;10.20;97.30;;;;;;4992354;28;20448;-83
2023/12/13 11:04:36;;;;;;;3.00;2.20;;;10.20;97.30;;;;;;4992304;28;20931;-85
2023/12/13 11:07:04;;;;;;;12.13;3.50;;;10.20;97.30;;;;;;4993724;28;20500;-85
2023/12/13 11:09:30;;;;;;;6.80;2.40;;;10.20;97.30;;;;;;4992681;28;20516;-86
2023/12/13 11:11:59;;;;;;;2.20;1.63;;;10.10;97.30;;;;;;4992365;28;20605;-87
2023/12/13 11:14:28;;;;;;;1.80;1.70;;;10.20;97.30;;;;;;4986721;28;20421;-85
2023/12/13 11:16:57;;;;;;;3.60;1.33;;;10.20;97.30;;;;;;4991745;28;20425;-85
2023/12/13 11:19:25;;;;;;;3.23;1.50;;;10.10;97.30;;;;;;4986924;28;20428;-85
2023/12/13 11:21:51;;;;;;;14.80;1.60;;;10.10;97.30;;;;;;4991829;28;20476;-85
2023/12/13 11:24:22;;;;;;;1.43;1.33;;;10.10;97.30;;;;;;4994915;28;20508;-86
2023/12/13 11:26:50;;;;;;;1.57;1.47;;;10.10;97.30;;;;;;4992240;28;20209;-86
2023/12/13 11:29:29;;;;;;;1.63;1.53;;;10.10;97.30;;;;;;4991450;28;20437;-85
2023/12/13 11:32:02;;;;;;;1.30;1.20;;;10.10;97.30;;;;;;4991893;28;20448;-86
2023/12/13 11:34:44;;;;;;;1.47;1.37;;;10.10;97.30;;;;;;4986004;28;20421;-86
2023/12/13 11:37:11;;;;;;;1.90;1.10;;;10.10;97.30;;;;;;4990500;28;20502;-85
2023/12/13 11:39:38;;;;;;;1.00;0.90;;;10.10;97.30;;;;;;4998640;28;20787;-85
2023/12/13 11:42:07;;;;;;;1.03;0.93;;;10.10;97.30;;;;;;4994219;28;20443;-86
2023/12/13 11:44:34;;;;;;;2.27;1.20;;;10.20;97.30;;;;;;4997457;28;20971;-85
2023/12/13 11:47:03;;;;;;;1.30;1.20;;;10.20;97.30;;;;;;4990323;28;20465;-86
2023/12/13 11:49:29;;;;;;;1.63;1.17;;;10.20;97.30;;;;;;4990594;28;20425;-86
2023/12/13 11:51:55;;;;;;;3.33;3.13;;;10.20;97.30;;;;;;4992443;28;20452;-85
2023/12/13 11:54:21;;;;;;;1.60;1.10;;;10.20;97.30;;;;;;4991349;28;20259;-86
2023/12/13 11:56:46;;;;;;;1.20;1.17;;;10.20;97.30;;;;;;4991457;28;20421;-86
2023/12/13 11:59:13;;;;;;;17.23;1.23;;;10.30;97.30;;;;;;4991011;28;20418;-86
2023/12/13 12:01:38;;;;;;;1.07;0.97;;;10.30;97.30;;;;;;4991398;28;20210;-86
2023/12/13 12:04:04;;;;;;;1.00;0.90;;;10.30;97.30;;;;;;4989872;28;20425;-86
2023/12/13 12:06:30;;;;;;;4.20;1.33;;;10.30;97.30;;;;;;4986223;28;20545;-85
2023/12/13 12:08:58;;;;;;;1.00;0.90;;;10.30;97.30;;;;;;4991500;28;20174;-86
2023/12/13 12:11:24;;;;;;;1.20;1.10;;;10.40;97.30;;;;;;4984504;28;20202;-85
2023/12/13 12:13:52;;;;;;;1.63;1.53;;;10.40;97.30;;;;;;4990984;28;20774;-85
2023/12/13 12:16:19;;;;;;;1.97;1.40;;;10.40;97.30;;;;;;4991329;28;20185;-85
2023/12/13 12:18:45;;;;;;;2.20;2.00;;;10.40;97.30;;;;;;4990925;28;20478;-85
2023/12/13 12:21:12;;;;;;;2.90;1.60;;;10.40;97.30;;;;;;4992147;28;20460;-87
2023/12/13 12:23:43;;;;;;;1.67;1.60;;;10.40;97.30;;;;;;4991242;28;20451;-86
2023/12/13 12:26:11;;;;;;;2.60;1.07;;;10.40;97.30;;;;;;4991605;28;20618;-86
2023/12/13 12:28:41;;;;;;;2.13;1.50;;;10.40;97.30;;;;;;4991576;28;21069;-85
2023/12/13 12:31:11;;;;;;;3.30;1.23;;;10.30;97.30;;;;;;4984389;28;20544;-86
2023/12/13 12:33:36;;;;;;;4.40;1.47;;;10.30;97.30;;;;;;4992639;28;20934;-86
2023/12/13 12:36:02;;;;;;;1.27;1.17;;;10.30;97.30;;;;;;4993856;28;20421;-87
2023/12/13 12:38:28;;;;;;;1.20;1.10;;;10.30;97.30;;;;;;5007617;28;20237;-87
2023/12/13 12:40:53;;;;;;;0.90;0.80;;;10.30;97.30;;;;;;5011545;28;20451;-87
2023/12/13 12:43:21;;;;;;;2.60;1.27;;;10.30;97.30;;;;;;5002556;28;20204;-86
2023/12/13 12:45:47;;;;;;;1.00;0.90;;;10.30;97.30;;;;;;4990838;28;20280;-86
2023/12/13 12:48:14;;;;;;;0.90;0.80;;;10.40;97.30;;;;;;4992805;28;20435;-86
2023/12/13 12:50:40;;;;;;;2.17;2.00;;;10.40;97.30;;;;;;4992856;28;20422;-86
2023/12/13 12:53:05;;;;;;;1.63;1.53;;;10.40;97.30;;;;;;4992989;28;20429;-86
2023/12/13 12:55:31;;;;;;;2.60;2.27;;;10.40;97.30;;;;;;4991394;28;20429;-86
2023/12/13 12:57:56;;;;;;;1.30;1.20;;;10.40;97.30;;;;;;4990800;28;20244;-86
2023/12/13 13:00:22;;;;;;;1.50;1.43;;;10.40;97.30;;;;;;4989580;28;20551;-85
2023/12/13 13:02:48;;;;;;;4.97;2.60;;;10.50;97.30;;;;;;4989224;28;20365;-85
2023/12/13 13:05:14;;;;;;;1.90;1.80;;;10.40;97.30;;;;;;4989847;28;20190;-87
2023/12/13 13:07:40;;;;;;;6.40;2.50;;;10.40;97.30;;;;;;4988914;28;20472;-86
2023/12/13 13:10:08;;;;;;;4.87;3.30;;;10.40;97.30;;;;;;4990153;28;20209;-86
2023/12/13 13:12:33;;;;;;;2.70;1.77;;;10.30;97.30;;;;;;4990144;28;20445;-85
2023/12/13 13:14:59;;;;;;;1.43;1.37;;;10.30;97.30;;;;;;4989779;28;20520;-85
2023/12/13 13:17:24;;;;;;;1.97;1.30;;;10.30;97.30;;;;;;4991329;28;20189;-86
2023/12/13 13:19:51;;;;;;;1.20;1.10;;;10.30;97.30;;;;;;4990026;28;20273;-87
2023/12/13 13:22:17;;;;;;;1.10;1.00;;;10.30;97.30;;;;;;4989566;28;20707;-85
2023/12/13 13:24:42;;;;;;;1.23;1.10;;;10.30;97.30;;;;;;4990213;28;20429;-86
2023/12/13 13:27:08;;;;;;;1.63;1.50;;;10.30;97.30;;;;;;4990982;28;20275;-86
2023/12/13 13:29:33;;;;;;;1.00;0.90;;;10.30;97.30;;;;;;4990024;28;20188;-85
2023/12/13 13:31:59;;;;;;;1.57;1.50;;;10.30;97.30;;;;;;4989871;28;20209;-86
2023/12/13 13:34:24;;;;;;;26.07;7.53;;;10.30;97.30;;;;;;4990108;28;20182;-86
2023/12/13 13:36:49;;;;;;;1.40;1.30;;;10.30;97.30;;;;;;4989589;28;20200;-86
2023/12/13 13:39:15;;;;;;;8.60;5.30;;;10.30;97.30;;;;;;4992200;28;20201;-85
2023/12/13 13:41:41;;;;;;;3.87;2.90;;;10.30;97.30;;;;;;4993906;28;20236;-86
2023/12/13 13:44:08;;;;;;;7.40;4.63;;;10.40;97.30;;;;;;4994940;28;20200;-84
2023/12/13 13:46:35;;;;;;;7.80;4.60;;;10.40;97.30;;;;;;4993917;28;20506;-86
2023/12/13 13:49:00;;;;;;;3.10;2.60;;;10.40;97.30;;;;;;4996637;28;20429;-86
2023/12/13 13:51:28;;;;;;;6.07;1.23;;;10.40;97.30;;;;;;4995247;28;20449;-86
2023/12/13 13:53:54;;;;;;;4.10;2.10;;;10.40;97.30;;;;;;4994214;28;20235;-86
2023/12/13 13:56:19;;;;;;;3.20;1.90;;;10.40;97.30;;;;;;4995599;28;20417;-88
2023/12/13 13:58:46;;;;;;;1.47;1.37;;;10.40;97.30;;;;;;4996064;28;20204;-86
2023/12/13 14:01:12;;;;;;;1.80;1.70;;;10.40;97.30;;;;;;4995307;28;20271;-85
2023/12/13 14:03:37;;;;;;;2.60;2.40;;;10.40;97.30;;;;;;4994120;28;20421;-86
2023/12/13 14:06:03;;;;;;;1.30;1.20;;;10.40;97.30;;;;;;4994693;28;20229;-86
2023/12/13 14:08:28;;;;;;;1.90;1.07;;;10.40;97.30;;;;;;4993450;28;20186;-86
2023/12/13 14:10:54;;;;;;;1.10;1.00;;;10.40;97.30;;;;;;4996970;28;20256;-85
2023/12/13 14:13:21;;;;;;;1.40;1.30;;;10.40;97.30;;;;;;5009258;28;20224;-87
2023/12/13 14:15:49;;;;;;;3.07;2.80;;;10.30;97.30;;;;;;4992992;28;20189;-87
2023/12/13 14:18:16;;;;;;;2.30;2.10;;;10.30;97.30;;;;;;4991600;28;20963;-86
2023/12/13 14:20:42;;;;;;;1.27;1.10;;;10.30;97.30;;;;;;4993529;28;20847;-85
2023/12/13 14:23:08;;;;;;;1.27;1.20;;;10.20;97.30;;;;;;4992312;28;20452;-86
2023/12/13 14:25:34;;;;;;;1.00;0.90;;;10.20;97.30;;;;;;4993263;28;20252;-83
2023/12/13 14:27:59;;;;;;;1.23;1.13;;;10.10;97.30;;;;;;4992912;28;20417;-87
2023/12/13 14:30:25;;;;;;;1.10;1.00;;;10.10;97.30;;;;;;4993052;28;20551;-85
2023/12/13 14:32:50;;;;;;;1.33;1.23;;;10.10;97.30;;;;;;4992985;28;20209;-86
2023/12/13 14:35:16;;;;;;;1.83;1.73;;;10.00;97.30;;;;;;4992807;28;20186;-86
2023/12/13 14:37:42;;;;;;;1.50;1.40;;;10.00;97.30;;;;;;4992937;28;20217;-86
2023/12/13 14:40:18;;;;;;;1.10;1.00;;;10.00;97.30;;;;;;4992829;28;20607;-86
2023/12/13 14:42:44;;;;;;;0.90;0.80;;;9.90;97.30;;;;;;4992832;28;20533;-86
2023/12/13 14:45:12;;;;;;;1.43;1.33;;;9.90;97.30;;;;;;4992771;28;20943;-86
2023/12/13 14:47:38;;;;;;;3.53;1.83;;;9.90;97.30;;;;;;4992924;28;20471;-86
2023/12/13 14:50:05;;;;;;;2.07;1.50;;;9.80;97.30;;;;;;4991958;28;20789;-86
2023/12/13 14:52:31;;;;;;;1.53;1.43;;;9.80;97.30;;;;;;4994004;28;20193;-84
2023/12/13 14:54:58;;;;;;;2.13;1.40;;;9.80;97.30;;;;;;4999106;28;20488;-87
2023/12/13 14:57:25;;;;;;;1.00;0.90;;;9.90;97.30;;;;;;5010275;28;20939;-89
2023/12/13 14:59:51;;;;;;;1.27;1.17;;;9.90;97.30;;;;;;4997074;28;20444;-86
2023/12/13 15:02:19;;;;;;;0.90;0.80;;;9.90;97.30;;;;;;4992568;28;20453;-88
2023/12/13 15:04:45;;;;;;;1.43;1.33;;;9.90;97.30;;;;;;4993809;28;20421;-86
2023/12/13 15:07:13;;;;;;;9.63;2.17;;;9.80;97.30;;;;;;4992205;28;20472;-85
2023/12/13 15:09:39;;;;;;;5.63;1.70;;;9.80;97.30;;;;;;4991996;28;20421;-87
2023/12/13 15:12:04;;;;;;;2.20;1.40;;;9.70;97.30;;;;;;4992665;28;20449;-86
2023/12/13 15:14:30;;;;;;;2.00;1.93;;;9.70;97.30;;;;;;4992237;28;20938;-87
2023/12/13 15:16:56;;;;;;;2.20;1.77;;;9.60;97.30;;;;;;4994506;28;20205;-86
2023/12/13 15:19:22;;;;;;;1.30;1.20;;;9.60;97.30;;;;;;4989878;28;20184;-86
2023/12/13 15:21:48;;;;;;;2.27;2.10;;;9.60;97.30;;;;;;4995088;28;20924;-86
2023/12/13 15:24:14;;;;;;;1.67;1.53;;;9.60;97.30;;;;;;4992735;28;20741;-86
2023/12/13 15:26:41;;;;;;;2.20;1.53;;;9.60;97.30;;;;;;4991889;28;20465;-85
2023/12/13 15:29:07;;;;;;;1.00;0.90;;;9.60;97.30;;;;;;4990714;28;20352;-86
2023/12/13 15:31:33;;;;;;;1.50;1.40;;;9.50;97.30;;;;;;4992135;28;20468;-86
2023/12/13 15:33:59;;;;;;;1.80;1.70;;;9.50;97.30;;;;;;4991010;28;20452;-86
2023/12/13 15:36:25;;;;;;;2.20;1.67;;;9.40;97.30;;;;;;4991949;28;20420;-85
2023/12/13 15:38:50;;;;;;;1.40;1.30;;;9.40;97.30;;;;;;4992078;28;20719;-85
2023/12/13 15:41:16;;;;;;;2.03;1.93;;;9.30;97.30;;;;;;4991447;28;20297;-86
2023/12/13 15:43:44;;;;;;;1.07;0.97;;;9.20;97.30;;;;;;4992387;28;20184;-86
2023/12/13 15:46:13;;;;;;;2.50;2.30;;;9.20;97.30;;;;;;4992146;28;20244;-86
2023/12/13 15:48:39;;;;;;;1.13;1.03;;;9.10;97.30;;;;;;4998308;28;20423;-87
2023/12/13 15:51:04;;;;;;;1.57;1.47;;;9.10;97.30;;;;;;5012327;28;20424;-88
2023/12/13 15:53:30;;;;;;;6.60;3.27;;;9.10;97.30;;;;;;5011822;28;20250;-88
2023/12/13 15:55:55;;;;;;;12.53;4.30;;;9.00;97.30;;;;;;5013251;28;20233;-88
2023/12/13 15:58:21;;;;;;;3.23;3.03;;;8.90;97.30;;;;;;5011919;28;20174;-86
2023/12/13 16:00:47;;;;;;;9.20;4.20;;;8.90;97.30;;;;;;5009058;28;20204;-85
2023/12/13 16:03:12;;;;;;;5.80;4.50;;;8.80;97.30;;;;;;4997837;28;20186;-85
2023/12/13 16:05:38;;;;;;;17.03;6.40;;;8.80;97.30;;;;;;4998514;28;20201;-86
2023/12/13 16:08:05;;;;;;;8.20;4.83;;;8.70;97.30;;;;;;5011442;28;20186;-87
2023/12/13 16:10:31;;;;;;;8.80;4.40;;;8.70;97.30;;;;;;5010833;28;20178;-86
2023/12/13 16:12:56;;;;;;;8.40;4.40;;;8.70;97.30;;;;;;5011006;28;20448;-87
2023/12/13 16:15:25;;;;;;;4.93;2.50;;;8.60;97.30;;;;;;5007292;28;20496;-84
2023/12/13 16:17:50;;;;;;;65.70;4.97;;;8.60;97.30;;;;;;4994724;28;20250;-83
2023/12/13 16:20:16;;;;;;;5.60;3.03;;;8.50;97.30;;;;;;4991228;28;20959;-82
2023/12/13 16:22:41;;;;;;;2.93;2.73;;;8.50;97.30;;;;;;4993750;28;20234;-85
2023/12/13 16:25:07;;;;;;;4.03;2.53;;;8.40;97.30;;;;;;4983092;28;20182;-85
2023/12/13 16:27:33;;;;;;;4.07;3.07;;;8.40;97.30;;;;;;4990905;28;20672;-85
2023/12/13 16:29:59;;;;;;;3.93;2.57;;;8.30;97.30;;;;;;4993698;28;20244;-85
2023/12/13 16:32:25;;;;;;;8.00;2.10;;;8.30;97.30;;;;;;4990012;28;20441;-85
2023/12/13 16:34:51;;;;;;;4.50;3.00;;;8.20;97.30;;;;;;4988843;28;20417;-85
2023/12/13 16:37:17;;;;;;;2.90;2.30;;;8.10;97.30;;;;;;4992348;28;20592;-86
2023/12/13 16:39:43;;;;;;;6.23;3.10;;;8.00;97.30;;;;;;4991068;28;20214;-87
2023/12/13 16:42:08;;;;;;;2.73;2.23;;;8.00;97.30;;;;;;4982052;28;20886;-85
2023/12/13 16:44:34;;;;;;;2.80;2.20;;;7.90;97.30;;;;;;4991703;28;20671;-86
2023/12/13 16:46:59;;;;;;;1.10;1.00;;;7.90;97.30;;;;;;4989204;28;20296;-86
2023/12/13 16:49:26;;;;;;;4.57;3.00;;;7.80;97.30;;;;;;4989031;28;20209;-84
2023/12/13 16:51:52;;;;;;;3.13;2.50;;;7.70;97.30;;;;;;4991420;28;20284;-85
2023/12/13 16:54:18;;;;;;;7.00;3.90;;;7.70;97.30;;;;;;4988609;28;20508;-84
2023/12/13 16:56:44;;;;;;;2.87;2.67;;;7.60;97.30;;;;;;4989069;28;20204;-86
2023/12/13 16:59:09;;;;;;;9.20;4.37;;;7.60;97.30;;;;;;4989750;28;20446;-86
2023/12/13 17:01:34;;;;;;;9.30;4.50;;;7.60;97.30;;;;;;4988283;28;20586;-84
2023/12/13 17:04:02;;;;;;;3.60;3.40;;;7.60;97.30;;;;;;4988599;28;20321;-85
2023/12/13 17:06:28;;;;;;;10.40;6.90;;;7.60;97.30;;;;;;4988725;28;20694;-84
2023/12/13 17:08:56;;;;;;;33.97;6.43;;;7.60;97.30;;;;;;4988679;28;20499;-87
2023/12/13 17:11:22;;;;;;;4.53;4.23;;;7.60;97.30;;;;;;4988832;28;20198;-86
2023/12/13 17:13:47;;;;;;;9.90;7.53;;;7.60;97.30;;;;;;4988728;28;20424;-88
2023/12/13 17:16:13;;;;;;;21.60;5.20;;;7.60;97.30;;;;;;4990551;28;20268;-87
2023/12/13 17:18:39;;;;;;;3.97;3.53;;;7.50;97.30;;;;;;4990155;28;20202;-84
2023/12/13 17:21:04;;;;;;;6.70;5.03;;;7.50;97.30;;;;;;4989729;28;20248;-87
2023/12/13 17:23:30;;;;;;;9.17;6.17;;;7.50;97.30;;;;;;4991005;28;20193;-86
2023/12/13 17:25:55;;;;;;;15.80;7.37;;;7.50;97.30;;;;;;4990296;28;20252;-86
2023/12/13 17:28:21;;;;;;;6.20;4.27;;;7.50;97.30;;;;;;4990220;28;20252;-85
2023/12/13 17:30:47;;;;;;;15.30;4.30;;;7.50;97.30;;;;;;4990002;28;20228;-86
2023/12/13 17:33:12;;;;;;;7.40;3.77;;;7.50;97.30;;;;;;4989780;28;20209;-85
2023/12/13 17:35:38;;;;;;;8.13;5.03;;;7.50;97.30;;;;;;4990382;28;20196;-85
2023/12/13 17:38:03;;;;;;;11.33;6.80;;;7.50;97.30;;;;;;4989980;28;20197;-85
2023/12/13 17:40:29;;;;;;;4.87;3.20;;;7.50;97.30;;;;;;4991835;28;20209;-85
2023/12/13 17:42:55;;;;;;;1.47;1.43;;;7.50;97.30;;;;;;4989887;28;20231;-85
2023/12/13 17:45:20;;;;;;;3.07;2.30;;;7.50;97.30;;;;;;4990134;28;20182;-85
2023/12/13 17:47:46;;;;;;;3.90;3.00;;;7.50;97.30;;;;;;4990480;28;20185;-84